createdAt,value
2022-12-18T00:01:07.338Z,98.50
2022-12-18T00:03:37.030Z,99.06
2022-12-18T00:06:04.196Z,98.77
2022-12-18T00:08:30.801Z,98.48
2022-12-18T00:11:07.021Z,98.91
2022-12-18T00:13:34.283Z,98.85
2022-12-18T00:16:06.052Z,98.66
2022-12-18T00:18:33.768Z,99.16
2022-12-18T00:21:02.509Z,98.72
2022-12-18T00:23:30.339Z,98.86
2022-12-18T00:26:01.255Z,98.83
2022-12-18T00:28:27.955Z,99.01
2022-12-18T00:31:12.616Z,99.18
2022-12-18T00:33:39.892Z,99.08
2022-12-18T00:36:10.059Z,99.22
2022-12-18T00:38:37.272Z,98.97
2022-12-18T00:41:04.541Z,98.70
2022-12-18T00:43:31.033Z,98.92
2022-12-18T00:45:57.522Z,98.90
2022-12-18T00:48:24.091Z,98.91
2022-12-18T00:50:51.552Z,98.97
2022-12-18T00:53:19.250Z,98.67
2022-12-18T00:55:46.725Z,98.58
2022-12-18T00:58:14.640Z,98.94
2022-12-18T01:00:41.888Z,98.95
2022-12-18T01:03:08.968Z,98.42
2022-12-18T01:05:35.606Z,98.77
2022-12-18T01:08:02.174Z,98.77
2022-12-18T01:10:28.685Z,98.76
2022-12-18T01:12:55.123Z,98.94
2022-12-18T01:15:21.695Z,98.86
2022-12-18T01:17:48.194Z,99.11
2022-12-18T01:20:15.012Z,99.00
2022-12-18T01:22:41.766Z,99.25
2022-12-18T01:25:09.125Z,99.45
2022-12-18T01:27:35.771Z,99.13
2022-12-18T01:30:02.464Z,99.10
2022-12-18T01:32:31.985Z,99.02
2022-12-18T01:34:58.826Z,99.01
2022-12-18T01:37:25.571Z,99.23
2022-12-18T01:39:55.311Z,99.35
2022-12-18T01:42:22.613Z,99.38
2022-12-18T01:45:22.474Z,99.28
2022-12-18T01:47:52.097Z,99.40
2022-12-18T01:50:23.136Z,99.20
2022-12-18T01:53:03.233Z,99.15
2022-12-18T01:55:34.084Z,99.29
2022-12-18T01:58:01.575Z,98.89
2022-12-18T02:00:29.067Z,99.17
2022-12-18T02:02:55.882Z,98.65
2022-12-18T02:05:41.907Z,98.68
2022-12-18T02:08:17.154Z,98.54
2022-12-18T02:11:15.105Z,98.66
2022-12-18T02:13:57.156Z,98.44
2022-12-18T02:17:02.483Z,98.66
2022-12-18T02:19:48.194Z,98.44
2022-12-18T02:22:42.575Z,98.52
2022-12-18T02:25:33.581Z,98.38
2022-12-18T02:28:02.735Z,98.23
2022-12-18T02:30:34.070Z,98.44
2022-12-18T02:33:04.984Z,98.46
2022-12-18T02:35:34.681Z,98.34
2022-12-18T02:38:04.148Z,98.29
2022-12-18T02:40:31.398Z,98.27
2022-12-18T02:43:13.405Z,98.23
2022-12-18T02:45:53.308Z,98.24
2022-12-18T02:48:24.394Z,98.18
2022-12-18T02:51:21.800Z,97.87
2022-12-18T02:54:17.087Z,97.83
2022-12-18T02:56:51.541Z,97.93
2022-12-18T02:59:32.951Z,97.94
2022-12-18T03:02:03.669Z,97.90
2022-12-18T03:04:44.687Z,98.06
2022-12-18T03:07:19.497Z,97.88
2022-12-18T03:09:49.482Z,97.85
2022-12-18T03:12:24.812Z,97.56
2022-12-18T03:15:18.331Z,97.50
2022-12-18T03:17:53.764Z,97.48
2022-12-18T03:20:23.400Z,97.30
2022-12-18T03:22:57.141Z,97.46
2022-12-18T03:25:26.606Z,97.57
2022-12-18T03:27:58.874Z,97.31
2022-12-18T03:30:27.495Z,96.79
2022-12-18T03:33:08.212Z,96.87
2022-12-18T03:35:40.157Z,96.86
2022-12-18T03:38:08.139Z,97.07
2022-12-18T03:41:07.461Z,97.01
2022-12-18T03:43:51.954Z,96.65
2022-12-18T03:46:31.035Z,96.97
2022-12-18T03:49:09.678Z,97.12
2022-12-18T03:51:46.174Z,96.73
2022-12-18T03:54:13.915Z,96.50
2022-12-18T03:56:45.213Z,96.67
2022-12-18T03:59:16.083Z,96.63
2022-12-18T04:01:52.587Z,96.78
2022-12-18T04:04:20.755Z,96.92
2022-12-18T04:06:50.645Z,96.80
2022-12-18T04:09:17.318Z,96.78
2022-12-18T04:11:46.981Z,96.55
2022-12-18T04:14:17.673Z,96.41
2022-12-18T04:16:44.984Z,96.54
2022-12-18T04:19:11.535Z,96.82
2022-12-18T04:21:38.151Z,96.48
2022-12-18T04:24:05.059Z,96.58
2022-12-18T04:26:31.775Z,96.40
2022-12-18T04:28:58.261Z,96.39
2022-12-18T04:31:24.947Z,96.40
2022-12-18T04:33:54.602Z,96.52
2022-12-18T04:36:21.139Z,96.17
2022-12-18T04:38:47.745Z,96.77
2022-12-18T04:41:14.304Z,96.62
2022-12-18T04:43:41.273Z,95.99
2022-12-18T04:46:09.108Z,96.47
2022-12-18T04:48:36.532Z,96.17
2022-12-18T04:51:03.591Z,96.39
2022-12-18T04:53:30.159Z,96.48
2022-12-18T04:56:08.077Z,96.08
2022-12-18T04:58:34.653Z,96.34
2022-12-18T05:01:01.450Z,96.19
2022-12-18T05:03:28.309Z,96.19
2022-12-18T05:05:54.782Z,96.17
2022-12-18T05:08:21.557Z,96.19
2022-12-18T05:10:48.013Z,96.59
2022-12-18T05:13:14.669Z,96.17
2022-12-18T05:15:42.753Z,96.31
2022-12-18T05:18:09.601Z,96.23
2022-12-18T05:20:36.100Z,95.95
2022-12-18T05:23:02.692Z,96.37
2022-12-18T05:25:29.327Z,96.50
2022-12-18T05:27:56.113Z,96.14
2022-12-18T05:30:23.468Z,96.47
2022-12-18T05:32:49.923Z,96.33
2022-12-18T05:35:16.593Z,96.39
2022-12-18T05:37:43.652Z,96.30
2022-12-18T05:40:11.159Z,96.07
2022-12-18T05:42:37.938Z,96.58
2022-12-18T05:45:05.828Z,96.07
2022-12-18T05:47:32.551Z,95.90
2022-12-18T05:49:59.086Z,95.79
2022-12-18T05:52:25.635Z,96.03
2022-12-18T05:54:52.212Z,95.99
2022-12-18T05:57:18.692Z,95.75
2022-12-18T05:59:45.296Z,96.22
2022-12-18T06:02:12.010Z,96.14
2022-12-18T06:04:38.627Z,96.26
2022-12-18T06:07:05.172Z,95.95
2022-12-18T06:09:31.824Z,96.38
2022-12-18T06:11:58.505Z,96.17
2022-12-18T06:14:24.999Z,96.44
2022-12-18T06:16:53.326Z,96.23
2022-12-18T06:19:19.877Z,96.17
2022-12-18T06:21:46.447Z,95.83
2022-12-18T06:24:13.066Z,96.18
2022-12-18T06:26:40.201Z,95.41
2022-12-18T06:29:07.020Z,96.01
2022-12-18T06:31:33.759Z,95.85
2022-12-18T06:34:02.685Z,96.16
2022-12-18T06:36:29.669Z,95.68
2022-12-18T06:38:57.952Z,95.82
2022-12-18T06:41:25.004Z,96.00
2022-12-18T06:43:53.552Z,96.38
2022-12-18T06:46:22.223Z,95.83
2022-12-18T06:48:50.862Z,96.03
2022-12-18T06:51:22.270Z,95.80
2022-12-18T06:53:48.890Z,96.05
2022-12-18T06:56:15.493Z,96.08
2022-12-18T06:58:42.106Z,96.45
2022-12-18T07:01:11.396Z,96.13
2022-12-18T07:03:40.008Z,95.70
2022-12-18T07:06:07.485Z,95.79
2022-12-18T07:08:34.816Z,96.04
2022-12-18T07:11:04.676Z,95.95
2022-12-18T07:13:31.374Z,95.65
2022-12-18T07:16:18.448Z,95.62
2022-12-18T07:18:49.321Z,95.94
2022-12-18T07:21:19.303Z,95.52
2022-12-18T07:23:48.825Z,95.39
2022-12-18T07:26:17.666Z,95.77
2022-12-18T07:28:44.796Z,95.43
2022-12-18T07:31:14.619Z,95.49
2022-12-18T07:33:42.018Z,95.76
2022-12-18T07:36:10.753Z,95.10
2022-12-18T07:38:37.656Z,95.33
2022-12-18T07:41:12.379Z,95.74
2022-12-18T07:43:40.451Z,95.69
2022-12-18T07:46:09.492Z,95.16
2022-12-18T07:48:36.154Z,95.32
2022-12-18T07:51:07.585Z,95.43
2022-12-18T07:53:35.556Z,95.60
2022-12-18T07:56:26.508Z,95.84
2022-12-18T07:58:52.664Z,95.58
2022-12-18T08:01:19.184Z,95.56
2022-12-18T08:03:47.765Z,95.75
2022-12-18T08:06:14.722Z,96.05
2022-12-18T08:08:43.222Z,96.19
2022-12-18T08:11:10.047Z,95.67
2022-12-18T08:13:36.687Z,96.23
2022-12-18T08:16:07.025Z,96.23
2022-12-18T08:18:35.270Z,95.93
2022-12-18T08:21:20.451Z,95.98
2022-12-18T08:23:48.785Z,96.13
2022-12-18T08:26:16.351Z,96.35
2022-12-18T08:28:43.197Z,96.57
2022-12-18T08:31:10.092Z,96.03
2022-12-18T08:33:39.041Z,96.34
2022-12-18T08:36:06.452Z,96.24
2022-12-18T08:38:33.699Z,96.77
2022-12-18T08:41:04.733Z,96.86
2022-12-18T08:43:49.861Z,96.77
2022-12-18T08:46:16.480Z,96.76
2022-12-18T08:48:43.061Z,96.84
2022-12-18T08:51:10.684Z,97.13
2022-12-18T08:53:38.451Z,97.34
2022-12-18T08:56:05.850Z,97.57
2022-12-18T08:58:32.497Z,97.26
2022-12-18T09:01:06.530Z,97.16
2022-12-18T09:03:33.602Z,97.95
2022-12-18T09:06:00.614Z,97.72
2022-12-18T09:08:27.785Z,97.86
2022-12-18T09:10:54.351Z,97.71
2022-12-18T09:13:21.106Z,98.07
2022-12-18T09:15:53.080Z,98.26
2022-12-18T09:18:22.421Z,98.17
2022-12-18T09:20:49.045Z,98.42
2022-12-18T09:23:15.851Z,98.53
2022-12-18T09:25:42.583Z,98.22
2022-12-18T09:28:15.568Z,98.69
2022-12-18T09:30:47.476Z,98.16
2022-12-18T09:33:14.705Z,98.52
2022-12-18T09:35:42.835Z,98.84
2022-12-18T09:38:13.661Z,98.91
2022-12-18T09:40:48.397Z,99.30
2022-12-18T09:43:39.492Z,99.28
2022-12-18T09:46:11.387Z,99.29
2022-12-18T09:48:44.972Z,99.53
2022-12-18T09:51:19.421Z,99.48
2022-12-18T09:53:56.692Z,99.77
2022-12-18T09:56:24.100Z,99.68
2022-12-18T09:58:58.913Z,99.85
2022-12-18T10:01:30.322Z,99.95
2022-12-18T10:04:02.247Z,100.00
2022-12-18T10:06:33.307Z,100.00
2022-12-18T10:09:08.929Z,100.00
2022-12-18T10:11:55.054Z,100.00
2022-12-18T10:14:34.007Z,99.68
2022-12-18T10:17:25.282Z,99.72
2022-12-18T10:19:57.359Z,99.74
2022-12-18T10:22:39.079Z,99.75
2022-12-18T10:25:20.925Z,99.40
2022-12-18T10:27:48.211Z,99.54
2022-12-18T10:30:22.204Z,99.42
2022-12-18T10:32:48.796Z,99.16
2022-12-18T10:35:25.019Z,99.10
2022-12-18T10:38:29.210Z,99.06
2022-12-18T10:40:58.524Z,98.93
2022-12-18T10:43:36.694Z,99.04
2022-12-18T10:46:09.151Z,99.19
2022-12-18T10:48:38.150Z,98.93
2022-12-18T10:51:12.145Z,98.70
2022-12-18T10:53:42.442Z,98.51
2022-12-18T10:56:09.903Z,98.90
2022-12-18T10:58:39.528Z,98.50
2022-12-18T11:01:09.491Z,98.41
2022-12-18T11:03:39.293Z,98.13
2022-12-18T11:06:07.885Z,97.65
2022-12-18T11:08:34.658Z,97.97
2022-12-18T11:11:01.697Z,97.98
2022-12-18T11:13:31.617Z,97.87
2022-12-18T11:15:59.044Z,97.97
2022-12-18T11:18:35.421Z,98.02
2022-12-18T11:21:08.856Z,97.60
2022-12-18T11:23:37.210Z,97.77
2022-12-18T11:26:07.048Z,97.52
2022-12-18T11:28:48.218Z,97.37
2022-12-18T11:31:28.763Z,97.17
2022-12-18T11:34:30.650Z,96.48
2022-12-18T11:37:00.121Z,96.64
2022-12-18T11:39:57.654Z,96.23
2022-12-18T11:42:33.799Z,96.20
2022-12-18T11:45:02.513Z,95.99
2022-12-18T11:47:47.817Z,96.05
2022-12-18T11:50:23.046Z,95.42
2022-12-18T11:52:55.946Z,95.22
2022-12-18T11:55:29.934Z,95.03
2022-12-18T11:58:15.589Z,95.18
2022-12-18T12:00:55.473Z,95.10
2022-12-18T12:03:48.542Z,94.53
2022-12-18T12:06:56.480Z,94.47
2022-12-18T12:10:10.637Z,94.03
2022-12-18T12:12:58.467Z,93.85
2022-12-18T12:16:02.493Z,93.46
2022-12-18T12:19:19.689Z,93.94
2022-12-18T12:22:19.942Z,93.28
2022-12-18T12:24:58.525Z,93.27
2022-12-18T12:27:33.757Z,93.12
2022-12-18T12:30:38.150Z,92.80
2022-12-18T12:33:19.735Z,92.83
2022-12-18T12:36:04.977Z,92.19
2022-12-18T12:38:46.858Z,91.85
2022-12-18T12:41:40.601Z,92.26
2022-12-18T12:44:15.311Z,91.96
2022-12-18T12:46:44.662Z,91.70
2022-12-18T12:49:16.493Z,91.48
2022-12-18T12:51:48.682Z,91.23
2022-12-18T12:54:21.139Z,91.34
2022-12-18T12:57:03.271Z,91.03
2022-12-18T12:59:30.301Z,91.05
2022-12-18T13:02:15.144Z,91.00
2022-12-18T13:05:23.815Z,90.76
2022-12-18T13:08:12.030Z,90.70
2022-12-18T13:10:43.292Z,90.61
2022-12-18T13:13:21.188Z,90.41
2022-12-18T13:16:06.066Z,90.10
2022-12-18T13:18:34.198Z,90.28
2022-12-18T13:21:03.324Z,90.54
2022-12-18T13:23:38.313Z,90.40
2022-12-18T13:26:09.011Z,90.41
2022-12-18T13:28:47.873Z,90.45
2022-12-18T13:31:14.457Z,90.70
2022-12-18T13:34:16.939Z,89.32
2022-12-18T13:36:34.848Z,89.42
2022-12-18T13:39:26.517Z,89.24
2022-12-18T13:42:56.339Z,89.08
2022-12-18T13:45:43.363Z,89.09
2022-12-18T13:48:23.602Z,89.33
2022-12-18T13:50:57.573Z,89.42
2022-12-18T13:53:29.301Z,89.58
2022-12-18T13:55:56.128Z,89.39
2022-12-18T13:58:23.369Z,89.62
2022-12-18T14:00:49.941Z,89.58
2022-12-18T14:03:22.457Z,89.40
2022-12-18T14:05:56.657Z,89.47
2022-12-18T14:08:29.262Z,89.57
2022-12-18T14:10:56.309Z,89.31
2022-12-18T14:13:31.266Z,89.60
2022-12-18T14:15:59.036Z,89.77
2022-12-18T14:18:28.324Z,89.73
2022-12-18T14:21:03.423Z,89.70
2022-12-18T14:23:42.161Z,89.45
2022-12-18T14:26:28.196Z,89.18
2022-12-18T14:28:56.447Z,89.45
2022-12-18T14:31:25.467Z,89.13
2022-12-18T14:33:53.377Z,88.98
2022-12-18T14:36:25.266Z,89.04
2022-12-18T14:38:57.481Z,88.98
2022-12-18T14:41:25.489Z,89.28
2022-12-18T14:43:54.849Z,89.31
2022-12-18T14:46:33.946Z,88.99
2022-12-18T14:49:06.857Z,89.02
2022-12-18T14:51:35.252Z,88.90
2022-12-18T14:54:15.710Z,89.25
2022-12-18T14:56:52.079Z,88.73
2022-12-18T14:59:24.823Z,88.50
2022-12-18T15:02:05.401Z,88.56
2022-12-18T15:04:35.585Z,88.47
2022-12-18T15:07:19.690Z,88.45
2022-12-18T15:10:11.424Z,87.84
2022-12-18T15:12:42.670Z,87.79
2022-12-18T15:15:34.482Z,87.66
2022-12-18T15:18:11.467Z,87.46
2022-12-18T15:20:44.100Z,87.63
2022-12-18T15:23:27.140Z,87.27
2022-12-18T15:26:02.374Z,87.06
2022-12-18T15:28:48.893Z,86.52
2022-12-18T15:31:17.036Z,86.61
2022-12-18T15:33:53.959Z,86.45
2022-12-18T15:36:26.533Z,86.85
2022-12-18T15:38:57.878Z,86.33
2022-12-18T15:41:35.249Z,86.89
2022-12-18T15:44:03.943Z,86.55
2022-12-18T15:46:32.005Z,86.89
2022-12-18T15:49:02.314Z,86.96
2022-12-18T15:51:34.553Z,86.76
2022-12-18T15:54:07.215Z,86.22
2022-12-18T15:56:52.279Z,86.40
2022-12-18T15:59:23.739Z,86.63
2022-12-18T16:01:53.944Z,86.47
2022-12-18T16:04:22.603Z,86.41
2022-12-18T16:09:37.828Z,86.35
2022-12-18T16:12:04.836Z,86.09
2022-12-18T16:14:31.953Z,86.47
2022-12-18T16:17:03.550Z,86.20
2022-12-18T16:19:30.728Z,86.04
2022-12-18T16:21:58.797Z,85.85
2022-12-18T16:24:28.608Z,85.74
2022-12-18T16:26:57.263Z,85.94
2022-12-18T16:29:27.782Z,85.91
2022-12-18T16:31:55.419Z,85.45
2022-12-18T16:34:23.450Z,85.61
2022-12-18T16:36:54.396Z,85.44
2022-12-18T16:39:22.365Z,85.58
2022-12-18T16:41:50.329Z,85.23
2022-12-18T16:44:17.437Z,85.21
2022-12-18T16:46:46.395Z,85.29
2022-12-18T16:49:18.560Z,85.11
2022-12-18T16:51:46.809Z,85.13
2022-12-18T16:54:19.023Z,85.22
2022-12-18T16:56:48.035Z,85.10
2022-12-18T16:59:14.753Z,85.26
2022-12-18T17:01:42.571Z,85.10
2022-12-18T17:04:09.648Z,85.40
2022-12-18T17:06:41.646Z,84.73
2022-12-18T17:09:12.783Z,84.86
2022-12-18T17:11:39.501Z,84.76
2022-12-18T17:14:25.318Z,84.93
2022-12-18T17:17:20.377Z,84.84
2022-12-18T17:19:43.744Z,85.00
2022-12-18T17:22:10.412Z,85.07
2022-12-18T17:24:37.485Z,85.07
2022-12-18T17:27:04.752Z,85.07
2022-12-18T17:29:31.599Z,84.90
2022-12-18T17:32:00.412Z,85.17
2022-12-18T17:34:27.578Z,84.79
2022-12-18T17:36:54.272Z,84.65
2022-12-18T17:39:21.459Z,84.96
2022-12-18T17:41:49.374Z,84.75
2022-12-18T17:44:16.876Z,84.99
2022-12-18T17:46:46.709Z,84.85
2022-12-18T17:49:14.215Z,84.79
2022-12-18T17:51:43.178Z,84.73
2022-12-18T17:54:10.696Z,84.49
2022-12-18T17:56:37.925Z,84.36
2022-12-18T17:59:04.627Z,84.81
2022-12-18T18:01:31.220Z,84.43
2022-12-18T18:04:00.213Z,84.82
2022-12-18T18:06:27.238Z,84.69
2022-12-18T18:08:54.151Z,84.42
2022-12-18T18:11:41.310Z,84.59
2022-12-18T18:14:15.467Z,84.63
2022-12-18T18:16:44.634Z,84.42
2022-12-18T18:19:14.766Z,84.42
2022-12-18T18:21:44.200Z,84.15
2022-12-18T18:24:13.546Z,84.52
2022-12-18T18:26:41.619Z,84.55
2022-12-18T18:29:08.825Z,84.67
2022-12-18T18:31:40.803Z,84.63
2022-12-18T18:34:08.207Z,84.49
2022-12-18T18:36:34.957Z,84.47
2022-12-18T18:39:02.156Z,84.31
2022-12-18T18:41:30.621Z,84.31
2022-12-18T18:43:58.694Z,84.24
2022-12-18T18:46:25.898Z,84.29
2022-12-18T18:48:52.738Z,84.40
2022-12-18T18:51:21.117Z,84.32
2022-12-18T18:53:50.487Z,84.23
2022-12-18T18:56:45.465Z,84.35
2022-12-18T18:59:06.503Z,83.96
2022-12-18T19:01:33.162Z,84.00
2022-12-18T19:04:01.138Z,84.07
2022-12-18T19:06:28.493Z,84.06
2022-12-18T19:08:57.210Z,84.05
2022-12-18T19:11:44.148Z,84.18
2022-12-18T19:14:12.977Z,84.26
2022-12-18T19:16:39.675Z,84.44
2022-12-18T19:19:07.046Z,84.08
2022-12-18T19:21:34.877Z,83.80
2022-12-18T19:24:05.055Z,83.89
2022-12-18T19:26:31.659Z,83.39
2022-12-18T19:29:06.053Z,83.78
2022-12-18T19:31:35.993Z,83.75
2022-12-18T19:34:03.790Z,83.40
2022-12-18T19:36:31.270Z,83.41
2022-12-18T19:39:00.219Z,82.90
2022-12-18T19:41:27.546Z,83.07
2022-12-18T19:43:57.145Z,82.91
2022-12-18T19:46:23.876Z,82.96
2022-12-18T19:48:51.585Z,82.52
2022-12-18T19:51:22.842Z,82.71
2022-12-18T19:53:54.949Z,82.88
2022-12-18T19:56:26.909Z,83.14
2022-12-18T19:58:55.061Z,83.48
2022-12-18T20:01:24.150Z,83.79
2022-12-18T20:03:53.748Z,84.22
2022-12-18T20:06:34.276Z,85.17
2022-12-18T20:09:04.418Z,86.20
2022-12-18T20:11:32.351Z,86.54
2022-12-18T20:13:58.920Z,87.04
2022-12-18T20:16:25.611Z,87.45
2022-12-18T20:18:52.462Z,88.02
2022-12-18T20:21:19.673Z,88.41
2022-12-18T20:23:46.735Z,89.28
2022-12-18T20:26:13.283Z,89.80
2022-12-18T20:28:40.724Z,90.01
2022-12-18T20:31:08.485Z,90.57
2022-12-18T20:33:37.486Z,90.93
2022-12-18T20:36:10.512Z,91.54
2022-12-18T20:38:39.037Z,91.95
2022-12-18T20:41:10.973Z,92.29
2022-12-18T20:43:39.158Z,92.78
2022-12-18T20:46:09.291Z,92.97
2022-12-18T20:48:36.297Z,93.29
2022-12-18T20:51:06.059Z,93.57
2022-12-18T20:53:33.481Z,93.75
2022-12-18T20:56:01.569Z,94.24
2022-12-18T20:58:28.267Z,94.78
2022-12-18T21:01:08.652Z,95.11
2022-12-18T21:03:35.554Z,95.05
2022-12-18T21:06:02.232Z,95.55
2022-12-18T21:08:28.704Z,96.17
2022-12-18T21:10:55.916Z,96.47
2022-12-18T21:13:22.935Z,97.12
2022-12-18T21:15:49.558Z,96.86
2022-12-18T21:18:16.129Z,97.12
2022-12-18T21:20:42.633Z,97.26
2022-12-18T21:23:16.227Z,97.42
2022-12-18T21:25:43.472Z,97.57
2022-12-18T21:28:09.908Z,98.03
2022-12-18T21:30:36.570Z,98.06
2022-12-18T21:33:03.259Z,98.37
2022-12-18T21:35:29.797Z,98.54
2022-12-18T21:37:58.741Z,98.51
2022-12-18T21:40:25.311Z,99.00
2022-12-18T21:43:10.396Z,99.05
2022-12-18T21:45:40.511Z,99.17
2022-12-18T21:48:07.055Z,99.52
2022-12-18T21:50:33.525Z,99.72
2022-12-18T21:53:00.102Z,99.70
2022-12-18T21:55:26.649Z,99.84
2022-12-18T21:57:54.692Z,100.00
2022-12-18T22:00:21.579Z,100.00
2022-12-18T22:03:17.848Z,100.00
2022-12-18T22:05:35.291Z,100.00
2022-12-18T22:08:01.804Z,100.00
2022-12-18T22:10:28.650Z,100.00
2022-12-18T22:12:55.235Z,100.00
2022-12-18T22:15:22.155Z,100.00
2022-12-18T22:17:50.995Z,100.00
2022-12-18T22:20:19.965Z,100.00
2022-12-18T22:22:48.202Z,100.00
2022-12-18T22:25:14.866Z,100.00
2022-12-18T22:27:41.323Z,100.00
2022-12-18T22:30:08.449Z,100.00
2022-12-18T22:32:36.139Z,100.00
2022-12-18T22:35:09.499Z,100.00
2022-12-18T22:37:40.794Z,100.00
2022-12-18T22:40:07.927Z,100.00
2022-12-18T22:42:35.295Z,100.00
2022-12-18T22:45:01.832Z,100.00
2022-12-18T22:47:30.513Z,100.00
2022-12-18T22:49:57.869Z,100.00
2022-12-18T22:52:25.082Z,100.00
2022-12-18T22:54:53.333Z,100.00
2022-12-18T22:57:21.693Z,100.00
2022-12-18T22:59:49.132Z,100.00
2022-12-18T23:02:15.839Z,100.00
2022-12-18T23:04:42.439Z,100.00
2022-12-18T23:07:09.048Z,100.00
2022-12-18T23:09:37.746Z,100.00
2022-12-18T23:12:04.693Z,100.00
2022-12-18T23:14:31.807Z,100.00
2022-12-18T23:16:58.327Z,100.00
2022-12-18T23:19:25.406Z,100.00
2022-12-18T23:21:51.996Z,100.00
2022-12-18T23:24:21.028Z,100.00
2022-12-18T23:26:47.494Z,100.00
2022-12-18T23:29:14.092Z,100.00
2022-12-18T23:31:40.732Z,100.00
2022-12-18T23:34:07.850Z,100.00
2022-12-18T23:36:45.334Z,100.00
2022-12-18T23:39:15.449Z,100.00
2022-12-18T23:41:57.742Z,100.00
2022-12-18T23:44:24.344Z,100.00
2022-12-18T23:46:50.946Z,100.00
2022-12-18T23:49:17.497Z,100.00
2022-12-18T23:51:43.941Z,100.00
2022-12-18T23:54:10.859Z,100.00
2022-12-18T23:56:37.445Z,100.00
2022-12-18T23:59:03.964Z,100.00
